sensor_id;sensor_type;location;lat;lon;timestamp;pressure;altitude;pressure_sealevel;temperature
7389;BMP180;3735;50.136;11.062;2024-02-21T00:01:01;98971.00;;;6.60
7389;BMP180;3735;50.136;11.062;2024-02-21T00:03:27;98974.00;;;6.60
7389;BMP180;3735;50.136;11.062;2024-02-21T00:05:53;98956.00;;;6.70
7389;BMP180;3735;50.136;11.062;2024-02-21T00:08:19;98969.00;;;6.80
7389;BMP180;3735;50.136;11.062;2024-02-21T00:10:44;98958.00;;;6.80
7389;BMP180;3735;50.136;11.062;2024-02-21T00:13:10;98942.00;;;6.80
7389;BMP180;3735;50.136;11.062;2024-02-21T00:15:37;98944.00;;;6.90
7389;BMP180;3735;50.136;11.062;2024-02-21T00:18:03;98943.00;;;7.00
7389;BMP180;3735;50.136;11.062;2024-02-21T00:20:28;98933.00;;;7.00
7389;BMP180;3735;50.136;11.062;2024-02-21T00:22:54;98933.00;;;7.10
7389;BMP180;3735;50.136;11.062;2024-02-21T00:25:20;98927.00;;;7.20
7389;BMP180;3735;50.136;11.062;2024-02-21T00:27:46;98920.00;;;7.20
7389;BMP180;3735;50.136;11.062;2024-02-21T00:30:12;98914.00;;;7.20
7389;BMP180;3735;50.136;11.062;2024-02-21T00:32:38;98925.00;;;7.20
7389;BMP180;3735;50.136;11.062;2024-02-21T00:35:04;98909.00;;;7.20
7389;BMP180;3735;50.136;11.062;2024-02-21T00:37:31;98906.00;;;7.20
7389;BMP180;3735;50.136;11.062;2024-02-21T00:39:57;98903.00;;;7.30
7389;BMP180;3735;50.136;11.062;2024-02-21T00:42:23;98900.00;;;7.20
7389;BMP180;3735;50.136;11.062;2024-02-21T00:44:48;98882.00;;;7.20
7389;BMP180;3735;50.136;11.062;2024-02-21T00:47:14;98891.00;;;7.20
7389;BMP180;3735;50.136;11.062;2024-02-21T00:49:40;98881.00;;;7.20
7389;BMP180;3735;50.136;11.062;2024-02-21T00:52:06;98886.00;;;7.20
7389;BMP180;3735;50.136;11.062;2024-02-21T00:54:32;98884.00;;;7.30
7389;BMP180;3735;50.136;11.062;2024-02-21T00:56:57;98883.00;;;7.30
7389;BMP180;3735;50.136;11.062;2024-02-21T00:59:23;98884.00;;;7.40
7389;BMP180;3735;50.136;11.062;2024-02-21T01:01:49;98884.00;;;7.30
7389;BMP180;3735;50.136;11.062;2024-02-21T01:04:15;98889.00;;;7.30
7389;BMP180;3735;50.136;11.062;2024-02-21T01:06:40;98888.00;;;7.30
7389;BMP180;3735;50.136;11.062;2024-02-21T01:09:10;98885.00;;;7.30
7389;BMP180;3735;50.136;11.062;2024-02-21T01:11:36;98888.00;;;7.30
7389;BMP180;3735;50.136;11.062;2024-02-21T01:14:02;98879.00;;;7.20
7389;BMP180;3735;50.136;11.062;2024-02-21T01:16:28;98883.00;;;7.20
7389;BMP180;3735;50.136;11.062;2024-02-21T01:18:57;98872.00;;;7.20
7389;BMP180;3735;50.136;11.062;2024-02-21T01:21:23;98880.00;;;7.20
7389;BMP180;3735;50.136;11.062;2024-02-21T01:23:48;98867.00;;;7.20
7389;BMP180;3735;50.136;11.062;2024-02-21T01:26:14;98873.00;;;7.10
7389;BMP180;3735;50.136;11.062;2024-02-21T01:28:41;98861.00;;;7.10
7389;BMP180;3735;50.136;11.062;2024-02-21T01:31:07;98870.00;;;7.00
7389;BMP180;3735;50.136;11.062;2024-02-21T01:33:33;98871.00;;;7.00
7389;BMP180;3735;50.136;11.062;2024-02-21T01:36:04;98860.00;;;7.00
7389;BMP180;3735;50.136;11.062;2024-02-21T01:38:29;98863.00;;;7.00
7389;BMP180;3735;50.136;11.062;2024-02-21T01:40:57;98863.00;;;7.00
7389;BMP180;3735;50.136;11.062;2024-02-21T01:43:23;98856.00;;;7.00
7389;BMP180;3735;50.136;11.062;2024-02-21T01:45:52;98856.00;;;7.10
7389;BMP180;3735;50.136;11.062;2024-02-21T01:48:20;98852.00;;;7.10
7389;BMP180;3735;50.136;11.062;2024-02-21T01:50:49;98847.00;;;7.20
7389;BMP180;3735;50.136;11.062;2024-02-21T01:53:21;98855.00;;;7.10
7389;BMP180;3735;50.136;11.062;2024-02-21T01:55:48;98847.00;;;7.10
7389;BMP180;3735;50.136;11.062;2024-02-21T01:58:16;98850.00;;;7.20
7389;BMP180;3735;50.136;11.062;2024-02-21T02:00:43;98841.00;;;7.20
7389;BMP180;3735;50.136;11.062;2024-02-21T02:03:13;98846.00;;;7.20
7389;BMP180;3735;50.136;11.062;2024-02-21T02:05:47;98847.00;;;7.20
7389;BMP180;3735;50.136;11.062;2024-02-21T02:08:15;98848.00;;;7.20
7389;BMP180;3735;50.136;11.062;2024-02-21T02:10:42;98837.00;;;7.20
7389;BMP180;3735;50.136;11.062;2024-02-21T02:13:08;98832.00;;;7.20
7389;BMP180;3735;50.136;11.062;2024-02-21T02:15:43;98835.00;;;7.20
7389;BMP180;3735;50.136;11.062;2024-02-21T02:18:10;98826.00;;;7.20
7389;BMP180;3735;50.136;11.062;2024-02-21T02:20:37;98830.00;;;7.20
7389;BMP180;3735;50.136;11.062;2024-02-21T02:25:52;98806.00;;;7.20
7389;BMP180;3735;50.136;11.062;2024-02-21T02:28:18;98811.00;;;7.20
7389;BMP180;3735;50.136;11.062;2024-02-21T02:30:45;98813.00;;;7.20
7389;BMP180;3735;50.136;11.062;2024-02-21T02:33:11;98816.00;;;7.20
7389;BMP180;3735;50.136;11.062;2024-02-21T02:35:37;98801.00;;;7.20
7389;BMP180;3735;50.136;11.062;2024-02-21T02:38:04;98806.00;;;7.20
7389;BMP180;3735;50.136;11.062;2024-02-21T02:40:33;98800.00;;;7.20
7389;BMP180;3735;50.136;11.062;2024-02-21T02:42:59;98772.00;;;7.20
7389;BMP180;3735;50.136;11.062;2024-02-21T02:45:25;98776.00;;;7.30
7389;BMP180;3735;50.136;11.062;2024-02-21T02:47:55;98771.00;;;7.20
7389;BMP180;3735;50.136;11.062;2024-02-21T02:50:26;98775.00;;;7.30
7389;BMP180;3735;50.136;11.062;2024-02-21T02:52:53;98767.00;;;7.20
7389;BMP180;3735;50.136;11.062;2024-02-21T02:55:20;98761.00;;;7.20
7389;BMP180;3735;50.136;11.062;2024-02-21T02:57:45;98764.00;;;7.20
7389;BMP180;3735;50.136;11.062;2024-02-21T03:00:13;98760.00;;;7.20
7389;BMP180;3735;50.136;11.062;2024-02-21T03:02:41;98757.00;;;7.20
7389;BMP180;3735;50.136;11.062;2024-02-21T03:05:19;98755.00;;;7.20
7389;BMP180;3735;50.136;11.062;2024-02-21T03:07:46;98737.00;;;7.20
7389;BMP180;3735;50.136;11.062;2024-02-21T03:10:13;98733.00;;;7.20
7389;BMP180;3735;50.136;11.062;2024-02-21T03:12:39;98726.00;;;7.30
7389;BMP180;3735;50.136;11.062;2024-02-21T03:15:06;98727.00;;;7.30
7389;BMP180;3735;50.136;11.062;2024-02-21T03:17:32;98724.00;;;7.30
7389;BMP180;3735;50.136;11.062;2024-02-21T03:20:03;98724.00;;;7.30
7389;BMP180;3735;50.136;11.062;2024-02-21T03:22:34;98718.00;;;7.30
7389;BMP180;3735;50.136;11.062;2024-02-21T03:25:00;98716.00;;;7.20
7389;BMP180;3735;50.136;11.062;2024-02-21T03:27:26;98740.00;;;7.20
7389;BMP180;3735;50.136;11.062;2024-02-21T03:29:52;98754.00;;;7.20
7389;BMP180;3735;50.136;11.062;2024-02-21T03:32:18;98744.00;;;7.10
7389;BMP180;3735;50.136;11.062;2024-02-21T03:34:44;98757.00;;;7.10
7389;BMP180;3735;50.136;11.062;2024-02-21T03:37:09;98747.00;;;7.00
7389;BMP180;3735;50.136;11.062;2024-02-21T03:39:35;98753.00;;;6.90
7389;BMP180;3735;50.136;11.062;2024-02-21T03:42:02;98755.00;;;6.80
7389;BMP180;3735;50.136;11.062;2024-02-21T03:44:33;98750.00;;;6.80
7389;BMP180;3735;50.136;11.062;2024-02-21T03:46:59;98754.00;;;6.70
7389;BMP180;3735;50.136;11.062;2024-02-21T03:49:26;98760.00;;;6.70
7389;BMP180;3735;50.136;11.062;2024-02-21T03:51:52;98754.00;;;6.70
7389;BMP180;3735;50.136;11.062;2024-02-21T03:54:18;98764.00;;;6.70
7389;BMP180;3735;50.136;11.062;2024-02-21T03:56:44;98770.00;;;6.70
7389;BMP180;3735;50.136;11.062;2024-02-21T03:59:10;98764.00;;;6.80
7389;BMP180;3735;50.136;11.062;2024-02-21T04:01:36;98754.00;;;6.70
7389;BMP180;3735;50.136;11.062;2024-02-21T04:04:02;98756.00;;;6.70
7389;BMP180;3735;50.136;11.062;2024-02-21T04:06:28;98753.00;;;6.70
7389;BMP180;3735;50.136;11.062;2024-02-21T04:08:54;98754.00;;;6.70
7389;BMP180;3735;50.136;11.062;2024-02-21T04:11:20;98751.00;;;6.70
7389;BMP180;3735;50.136;11.062;2024-02-21T04:13:45;98749.00;;;6.70
7389;BMP180;3735;50.136;11.062;2024-02-21T04:16:14;98741.00;;;6.80
7389;BMP180;3735;50.136;11.062;2024-02-21T04:18:41;98736.00;;;6.70
7389;BMP180;3735;50.136;11.062;2024-02-21T04:21:08;98723.00;;;6.80
7389;BMP180;3735;50.136;11.062;2024-02-21T04:23:34;98720.00;;;6.60
7389;BMP180;3735;50.136;11.062;2024-02-21T04:26:00;98724.00;;;6.80
7389;BMP180;3735;50.136;11.062;2024-02-21T04:28:25;98718.00;;;6.80
7389;BMP180;3735;50.136;11.062;2024-02-21T04:30:51;98716.00;;;6.80
7389;BMP180;3735;50.136;11.062;2024-02-21T04:33:17;98719.00;;;6.80
7389;BMP180;3735;50.136;11.062;2024-02-21T04:35:42;98711.00;;;6.80
7389;BMP180;3735;50.136;11.062;2024-02-21T04:38:09;98705.00;;;6.70
7389;BMP180;3735;50.136;11.062;2024-02-21T04:40:34;98712.00;;;6.80
7389;BMP180;3735;50.136;11.062;2024-02-21T04:43:00;98710.00;;;6.80
7389;BMP180;3735;50.136;11.062;2024-02-21T04:45:26;98712.00;;;6.80
7389;BMP180;3735;50.136;11.062;2024-02-21T04:47:51;98708.00;;;6.90
7389;BMP180;3735;50.136;11.062;2024-02-21T04:50:17;98723.00;;;6.80
7389;BMP180;3735;50.136;11.062;2024-02-21T04:52:43;98711.00;;;6.90
7389;BMP180;3735;50.136;11.062;2024-02-21T04:55:09;98714.00;;;6.80
7389;BMP180;3735;50.136;11.062;2024-02-21T04:57:35;98714.00;;;6.80
7389;BMP180;3735;50.136;11.062;2024-02-21T05:00:00;98702.00;;;6.90
7389;BMP180;3735;50.136;11.062;2024-02-21T05:02:26;98710.00;;;6.80
7389;BMP180;3735;50.136;11.062;2024-02-21T05:04:52;98708.00;;;6.80
7389;BMP180;3735;50.136;11.062;2024-02-21T05:07:18;98696.00;;;6.80
7389;BMP180;3735;50.136;11.062;2024-02-21T05:09:45;98698.00;;;6.80
7389;BMP180;3735;50.136;11.062;2024-02-21T05:12:11;98703.00;;;6.80
7389;BMP180;3735;50.136;11.062;2024-02-21T05:14:37;98708.00;;;6.80
7389;BMP180;3735;50.136;11.062;2024-02-21T05:17:04;98693.00;;;6.80
7389;BMP180;3735;50.136;11.062;2024-02-21T05:19:30;98689.00;;;6.80
7389;BMP180;3735;50.136;11.062;2024-02-21T05:21:56;98688.00;;;6.80
7389;BMP180;3735;50.136;11.062;2024-02-21T05:24:21;98682.00;;;6.80
7389;BMP180;3735;50.136;11.062;2024-02-21T05:26:47;98672.00;;;6.80
7389;BMP180;3735;50.136;11.062;2024-02-21T05:29:13;98679.00;;;6.80
7389;BMP180;3735;50.136;11.062;2024-02-21T05:34:18;98674.00;;;6.80
7389;BMP180;3735;50.136;11.062;2024-02-21T05:36:44;98656.00;;;6.80
7389;BMP180;3735;50.136;11.062;2024-02-21T05:39:10;98671.00;;;6.80
7389;BMP180;3735;50.136;11.062;2024-02-21T05:41:36;98674.00;;;6.80
7389;BMP180;3735;50.136;11.062;2024-02-21T05:44:01;98671.00;;;6.80
7389;BMP180;3735;50.136;11.062;2024-02-21T05:46:27;98669.00;;;6.80
7389;BMP180;3735;50.136;11.062;2024-02-21T05:48:53;98663.00;;;6.80
7389;BMP180;3735;50.136;11.062;2024-02-21T05:51:19;98657.00;;;6.80
7389;BMP180;3735;50.136;11.062;2024-02-21T05:53:45;98656.00;;;6.90
7389;BMP180;3735;50.136;11.062;2024-02-21T05:56:12;98655.00;;;6.80
7389;BMP180;3735;50.136;11.062;2024-02-21T05:58:38;98644.00;;;6.90
7389;BMP180;3735;50.136;11.062;2024-02-21T06:01:04;98626.00;;;6.90
7389;BMP180;3735;50.136;11.062;2024-02-21T06:03:33;98628.00;;;6.80
7389;BMP180;3735;50.136;11.062;2024-02-21T06:06:02;98634.00;;;6.80
7389;BMP180;3735;50.136;11.062;2024-02-21T06:08:29;98636.00;;;6.70
7389;BMP180;3735;50.136;11.062;2024-02-21T06:10:54;98639.00;;;6.70
7389;BMP180;3735;50.136;11.062;2024-02-21T06:13:23;98649.00;;;6.70
7389;BMP180;3735;50.136;11.062;2024-02-21T06:15:50;98641.00;;;6.70
7389;BMP180;3735;50.136;11.062;2024-02-21T06:18:17;98643.00;;;6.70
7389;BMP180;3735;50.136;11.062;2024-02-21T06:20:43;98652.00;;;6.60
7389;BMP180;3735;50.136;11.062;2024-02-21T06:23:11;98651.00;;;6.70
7389;BMP180;3735;50.136;11.062;2024-02-21T06:25:37;98650.00;;;6.50
7389;BMP180;3735;50.136;11.062;2024-02-21T06:28:04;98653.00;;;6.60
7389;BMP180;3735;50.136;11.062;2024-02-21T06:30:30;98654.00;;;6.60
7389;BMP180;3735;50.136;11.062;2024-02-21T06:32:56;98656.00;;;6.50
7389;BMP180;3735;50.136;11.062;2024-02-21T06:35:22;98661.00;;;6.50
7389;BMP180;3735;50.136;11.062;2024-02-21T06:37:54;98657.00;;;6.60
7389;BMP180;3735;50.136;11.062;2024-02-21T06:40:22;98644.00;;;6.70
7389;BMP180;3735;50.136;11.062;2024-02-21T06:42:49;98638.00;;;6.60
7389;BMP180;3735;50.136;11.062;2024-02-21T06:45:16;98641.00;;;6.70
7389;BMP180;3735;50.136;11.062;2024-02-21T06:47:42;98650.00;;;6.80
7389;BMP180;3735;50.136;11.062;2024-02-21T06:50:08;98655.00;;;6.90
7389;BMP180;3735;50.136;11.062;2024-02-21T06:52:36;98646.00;;;7.00
7389;BMP180;3735;50.136;11.062;2024-02-21T06:55:02;98638.00;;;7.20
7389;BMP180;3735;50.136;11.062;2024-02-21T06:57:29;98641.00;;;7.20
7389;BMP180;3735;50.136;11.062;2024-02-21T06:59:55;98641.00;;;7.30
7389;BMP180;3735;50.136;11.062;2024-02-21T07:02:21;98642.00;;;7.50
7389;BMP180;3735;50.136;11.062;2024-02-21T07:04:47;98636.00;;;7.40
7389;BMP180;3735;50.136;11.062;2024-02-21T07:07:12;98633.00;;;7.60
7389;BMP180;3735;50.136;11.062;2024-02-21T07:09:39;98642.00;;;7.40
7389;BMP180;3735;50.136;11.062;2024-02-21T07:12:05;98655.00;;;7.40
7389;BMP180;3735;50.136;11.062;2024-02-21T07:14:35;98664.00;;;7.40
7389;BMP180;3735;50.136;11.062;2024-02-21T07:17:01;98666.00;;;7.30
7389;BMP180;3735;50.136;11.062;2024-02-21T07:19:27;98660.00;;;7.20
7389;BMP180;3735;50.136;11.062;2024-02-21T07:21:53;98651.00;;;7.10
7389;BMP180;3735;50.136;11.062;2024-02-21T07:24:19;98655.00;;;7.00
7389;BMP180;3735;50.136;11.062;2024-02-21T07:26:44;98648.00;;;7.10
7389;BMP180;3735;50.136;11.062;2024-02-21T07:29:10;98643.00;;;7.10
7389;BMP180;3735;50.136;11.062;2024-02-21T07:31:41;98646.00;;;7.10
7389;BMP180;3735;50.136;11.062;2024-02-21T07:34:08;98643.00;;;7.20
7389;BMP180;3735;50.136;11.062;2024-02-21T07:36:34;98639.00;;;7.30
7389;BMP180;3735;50.136;11.062;2024-02-21T07:39:00;98629.00;;;7.30
7389;BMP180;3735;50.136;11.062;2024-02-21T07:41:26;98622.00;;;7.30
7389;BMP180;3735;50.136;11.062;2024-02-21T07:43:54;98615.00;;;7.50
7389;BMP180;3735;50.136;11.062;2024-02-21T07:46:19;98596.00;;;7.60
7389;BMP180;3735;50.136;11.062;2024-02-21T07:48:46;98613.00;;;7.80
7389;BMP180;3735;50.136;11.062;2024-02-21T07:51:12;98602.00;;;7.80
7389;BMP180;3735;50.136;11.062;2024-02-21T07:53:41;98618.00;;;7.70
7389;BMP180;3735;50.136;11.062;2024-02-21T07:56:15;98618.00;;;7.80
7389;BMP180;3735;50.136;11.062;2024-02-21T07:58:41;98593.00;;;7.60
7389;BMP180;3735;50.136;11.062;2024-02-21T08:01:08;98612.00;;;7.60
7389;BMP180;3735;50.136;11.062;2024-02-21T08:03:34;98627.00;;;7.60
7389;BMP180;3735;50.136;11.062;2024-02-21T08:06:01;98622.00;;;7.70
7389;BMP180;3735;50.136;11.062;2024-02-21T08:08:27;98618.00;;;7.70
7389;BMP180;3735;50.136;11.062;2024-02-21T08:10:53;98614.00;;;7.70
7389;BMP180;3735;50.136;11.062;2024-02-21T08:13:18;98605.00;;;7.90
7389;BMP180;3735;50.136;11.062;2024-02-21T08:15:44;98599.00;;;7.80
7389;BMP180;3735;50.136;11.062;2024-02-21T08:18:10;98603.00;;;7.90
7389;BMP180;3735;50.136;11.062;2024-02-21T08:20:36;98602.00;;;8.10
7389;BMP180;3735;50.136;11.062;2024-02-21T08:23:02;98614.00;;;8.10
7389;BMP180;3735;50.136;11.062;2024-02-21T08:25:28;98606.00;;;8.30
7389;BMP180;3735;50.136;11.062;2024-02-21T08:27:59;98611.00;;;8.20
7389;BMP180;3735;50.136;11.062;2024-02-21T08:30:26;98616.00;;;8.40
7389;BMP180;3735;50.136;11.062;2024-02-21T08:32:51;98624.00;;;8.40
7389;BMP180;3735;50.136;11.062;2024-02-21T08:35:19;98618.00;;;8.50
7389;BMP180;3735;50.136;11.062;2024-02-21T08:37:48;98618.00;;;8.70
7389;BMP180;3735;50.136;11.062;2024-02-21T08:40:14;98592.00;;;8.80
7389;BMP180;3735;50.136;11.062;2024-02-21T08:42:43;98601.00;;;8.70
7389;BMP180;3735;50.136;11.062;2024-02-21T08:47:36;98606.00;;;8.60
7389;BMP180;3735;50.136;11.062;2024-02-21T08:50:02;98600.00;;;8.60
7389;BMP180;3735;50.136;11.062;2024-02-21T08:52:28;98596.00;;;8.60
7389;BMP180;3735;50.136;11.062;2024-02-21T08:54:54;98592.00;;;8.70
7389;BMP180;3735;50.136;11.062;2024-02-21T08:57:20;98590.00;;;8.80
7389;BMP180;3735;50.136;11.062;2024-02-21T08:59:46;98585.00;;;8.90
7389;BMP180;3735;50.136;11.062;2024-02-21T09:02:13;98584.00;;;8.90
7389;BMP180;3735;50.136;11.062;2024-02-21T09:04:39;98590.00;;;8.80
7389;BMP180;3735;50.136;11.062;2024-02-21T09:07:04;98589.00;;;8.70
7389;BMP180;3735;50.136;11.062;2024-02-21T09:09:30;98577.00;;;9.00
7389;BMP180;3735;50.136;11.062;2024-02-21T09:11:58;98580.00;;;9.50
7389;BMP180;3735;50.136;11.062;2024-02-21T09:14:36;98569.00;;;10.10
7389;BMP180;3735;50.136;11.062;2024-02-21T09:17:03;98557.00;;;10.30
7389;BMP180;3735;50.136;11.062;2024-02-21T09:19:29;98560.00;;;10.70
7389;BMP180;3735;50.136;11.062;2024-02-21T09:21:55;98549.00;;;11.50
7389;BMP180;3735;50.136;11.062;2024-02-21T09:24:21;98551.00;;;12.50
7389;BMP180;3735;50.136;11.062;2024-02-21T09:26:46;98545.00;;;11.90
7389;BMP180;3735;50.136;11.062;2024-02-21T09:29:13;98537.00;;;12.40
7389;BMP180;3735;50.136;11.062;2024-02-21T09:31:38;98544.00;;;12.00
7389;BMP180;3735;50.136;11.062;2024-02-21T09:34:04;98545.00;;;12.70
7389;BMP180;3735;50.136;11.062;2024-02-21T09:36:31;98556.00;;;12.20
7389;BMP180;3735;50.136;11.062;2024-02-21T09:38:56;98541.00;;;11.90
7389;BMP180;3735;50.136;11.062;2024-02-21T09:41:28;98546.00;;;11.90
7389;BMP180;3735;50.136;11.062;2024-02-21T09:43:54;98548.00;;;11.70
7389;BMP180;3735;50.136;11.062;2024-02-21T09:46:40;98535.00;;;12.30
7389;BMP180;3735;50.136;11.062;2024-02-21T09:49:31;98544.00;;;12.30
7389;BMP180;3735;50.136;11.062;2024-02-21T09:52:01;98536.00;;;12.90
7389;BMP180;3735;50.136;11.062;2024-02-21T09:54:30;98522.00;;;13.20
7389;BMP180;3735;50.136;11.062;2024-02-21T09:56:56;98534.00;;;13.20
7389;BMP180;3735;50.136;11.062;2024-02-21T09:59:24;98531.00;;;13.00
7389;BMP180;3735;50.136;11.062;2024-02-21T10:01:50;98530.00;;;12.00
7389;BMP180;3735;50.136;11.062;2024-02-21T10:04:17;98528.00;;;11.80
7389;BMP180;3735;50.136;11.062;2024-02-21T10:06:44;98516.00;;;11.30
7389;BMP180;3735;50.136;11.062;2024-02-21T10:09:23;98515.00;;;10.90
7389;BMP180;3735;50.136;11.062;2024-02-21T10:11:54;98500.00;;;10.90
7389;BMP180;3735;50.136;11.062;2024-02-21T10:14:20;98500.00;;;11.70
7389;BMP180;3735;50.136;11.062;2024-02-21T10:16:57;98504.00;;;11.80
7389;BMP180;3735;50.136;11.062;2024-02-21T10:19:25;98513.00;;;11.30
7389;BMP180;3735;50.136;11.062;2024-02-21T10:22:07;98512.00;;;11.40
7389;BMP180;3735;50.136;11.062;2024-02-21T10:24:34;98507.00;;;11.40
7389;BMP180;3735;50.136;11.062;2024-02-21T10:27:07;98512.00;;;11.10
7389;BMP180;3735;50.136;11.062;2024-02-21T10:29:38;98502.00;;;11.50
7389;BMP180;3735;50.136;11.062;2024-02-21T10:32:09;98496.00;;;11.90
7389;BMP180;3735;50.136;11.062;2024-02-21T10:34:37;98489.00;;;12.30
7389;BMP180;3735;50.136;11.062;2024-02-21T10:37:05;98490.00;;;11.70
7389;BMP180;3735;50.136;11.062;2024-02-21T10:39:34;98493.00;;;11.90
7389;BMP180;3735;50.136;11.062;2024-02-21T10:42:02;98490.00;;;12.00
7389;BMP180;3735;50.136;11.062;2024-02-21T10:44:30;98481.00;;;11.90
7389;BMP180;3735;50.136;11.062;2024-02-21T10:47:01;98496.00;;;11.50
7389;BMP180;3735;50.136;11.062;2024-02-21T10:49:30;98485.00;;;11.30
7389;BMP180;3735;50.136;11.062;2024-02-21T10:52:44;98490.00;;;11.00
7389;BMP180;3735;50.136;11.062;2024-02-21T10:55:21;98478.00;;;10.90
7389;BMP180;3735;50.136;11.062;2024-02-21T10:57:50;98479.00;;;11.50
7389;BMP180;3735;50.136;11.062;2024-02-21T11:00:20;98476.00;;;11.60
7389;BMP180;3735;50.136;11.062;2024-02-21T11:02:48;98471.00;;;11.40
7389;BMP180;3735;50.136;11.062;2024-02-21T11:05:15;98474.00;;;11.30
7389;BMP180;3735;50.136;11.062;2024-02-21T11:07:41;98457.00;;;11.30
7389;BMP180;3735;50.136;11.062;2024-02-21T11:10:23;98456.00;;;11.80
7389;BMP180;3735;50.136;11.062;2024-02-21T11:12:51;98458.00;;;12.10
7389;BMP180;3735;50.136;11.062;2024-02-21T11:15:18;98440.00;;;12.40
7389;BMP180;3735;50.136;11.062;2024-02-21T11:17:55;98444.00;;;12.80
7389;BMP180;3735;50.136;11.062;2024-02-21T11:20:32;98418.00;;;13.70
7389;BMP180;3735;50.136;11.062;2024-02-21T11:22:58;98420.00;;;14.00
7389;BMP180;3735;50.136;11.062;2024-02-21T11:25:24;98415.00;;;14.00
7389;BMP180;3735;50.136;11.062;2024-02-21T11:28:03;98417.00;;;13.50
7389;BMP180;3735;50.136;11.062;2024-02-21T11:30:35;98406.00;;;13.60
7389;BMP180;3735;50.136;11.062;2024-02-21T11:33:09;98402.00;;;13.90
7389;BMP180;3735;50.136;11.062;2024-02-21T11:35:35;98404.00;;;13.80
7389;BMP180;3735;50.136;11.062;2024-02-21T11:38:12;98405.00;;;13.30
7389;BMP180;3735;50.136;11.062;2024-02-21T11:40:46;98397.00;;;13.10
7389;BMP180;3735;50.136;11.062;2024-02-21T11:43:12;98393.00;;;13.00
7389;BMP180;3735;50.136;11.062;2024-02-21T11:45:38;98394.00;;;13.40
7389;BMP180;3735;50.136;11.062;2024-02-21T11:48:06;98392.00;;;13.40
7389;BMP180;3735;50.136;11.062;2024-02-21T11:50:34;98380.00;;;13.10
7389;BMP180;3735;50.136;11.062;2024-02-21T11:53:00;98376.00;;;13.10
7389;BMP180;3735;50.136;11.062;2024-02-21T11:55:26;98368.00;;;13.10
7389;BMP180;3735;50.136;11.062;2024-02-21T11:57:52;98363.00;;;12.70
7389;BMP180;3735;50.136;11.062;2024-02-21T12:00:25;98357.00;;;13.00
7389;BMP180;3735;50.136;11.062;2024-02-21T12:02:51;98366.00;;;13.30
7389;BMP180;3735;50.136;11.062;2024-02-21T12:05:18;98358.00;;;13.70
7389;BMP180;3735;50.136;11.062;2024-02-21T12:07:45;98352.00;;;13.70
7389;BMP180;3735;50.136;11.062;2024-02-21T12:10:12;98340.00;;;13.20
7389;BMP180;3735;50.136;11.062;2024-02-21T12:12:39;98335.00;;;13.30
7389;BMP180;3735;50.136;11.062;2024-02-21T12:15:06;98341.00;;;13.30
7389;BMP180;3735;50.136;11.062;2024-02-21T12:17:34;98343.00;;;13.20
7389;BMP180;3735;50.136;11.062;2024-02-21T12:20:04;98330.00;;;13.20
7389;BMP180;3735;50.136;11.062;2024-02-21T12:22:36;98339.00;;;13.20
7389;BMP180;3735;50.136;11.062;2024-02-21T12:25:25;98337.00;;;13.20
7389;BMP180;3735;50.136;11.062;2024-02-21T12:27:54;98329.00;;;13.60
7389;BMP180;3735;50.136;11.062;2024-02-21T12:30:24;98323.00;;;13.70
7389;BMP180;3735;50.136;11.062;2024-02-21T12:32:49;98313.00;;;13.50
7389;BMP180;3735;50.136;11.062;2024-02-21T12:35:15;98304.00;;;13.20
7389;BMP180;3735;50.136;11.062;2024-02-21T12:37:41;98303.00;;;13.20
7389;BMP180;3735;50.136;11.062;2024-02-21T12:40:09;98298.00;;;13.40
7389;BMP180;3735;50.136;11.062;2024-02-21T12:42:39;98299.00;;;13.70
7389;BMP180;3735;50.136;11.062;2024-02-21T12:45:05;98296.00;;;13.70
7389;BMP180;3735;50.136;11.062;2024-02-21T12:47:30;98287.00;;;13.00
7389;BMP180;3735;50.136;11.062;2024-02-21T12:49:56;98290.00;;;13.00
7389;BMP180;3735;50.136;11.062;2024-02-21T12:52:22;98298.00;;;13.10
7389;BMP180;3735;50.136;11.062;2024-02-21T12:54:48;98287.00;;;13.30
7389;BMP180;3735;50.136;11.062;2024-02-21T12:57:14;98281.00;;;13.20
7389;BMP180;3735;50.136;11.062;2024-02-21T12:59:40;98280.00;;;13.10
7389;BMP180;3735;50.136;11.062;2024-02-21T13:02:06;98279.00;;;13.30
7389;BMP180;3735;50.136;11.062;2024-02-21T13:04:32;98266.00;;;13.30
7389;BMP180;3735;50.136;11.062;2024-02-21T13:06:58;98261.00;;;13.20
7389;BMP180;3735;50.136;11.062;2024-02-21T13:09:23;98242.00;;;12.60
7389;BMP180;3735;50.136;11.062;2024-02-21T13:11:49;98244.00;;;12.90
7389;BMP180;3735;50.136;11.062;2024-02-21T13:14:16;98243.00;;;13.10
7389;BMP180;3735;50.136;11.062;2024-02-21T13:16:42;98231.00;;;13.10
7389;BMP180;3735;50.136;11.062;2024-02-21T13:19:08;98221.00;;;12.70
7389;BMP180;3735;50.136;11.062;2024-02-21T13:21:35;98223.00;;;13.00
7389;BMP180;3735;50.136;11.062;2024-02-21T13:24:02;98215.00;;;12.80
7389;BMP180;3735;50.136;11.062;2024-02-21T13:26:28;98226.00;;;12.50
7389;BMP180;3735;50.136;11.062;2024-02-21T13:28:54;98220.00;;;12.70
7389;BMP180;3735;50.136;11.062;2024-02-21T13:31:20;98215.00;;;12.60
7389;BMP180;3735;50.136;11.062;2024-02-21T13:33:46;98208.00;;;12.70
7389;BMP180;3735;50.136;11.062;2024-02-21T13:36:12;98198.00;;;12.50
7389;BMP180;3735;50.136;11.062;2024-02-21T13:38:38;98200.00;;;12.80
7389;BMP180;3735;50.136;11.062;2024-02-21T13:41:05;98201.00;;;12.80
7389;BMP180;3735;50.136;11.062;2024-02-21T13:43:34;98203.00;;;12.90
7389;BMP180;3735;50.136;11.062;2024-02-21T13:46:02;98197.00;;;12.70
7389;BMP180;3735;50.136;11.062;2024-02-21T13:48:30;98196.00;;;12.60
7389;BMP180;3735;50.136;11.062;2024-02-21T13:50:57;98196.00;;;12.60
7389;BMP180;3735;50.136;11.062;2024-02-21T13:53:23;98200.00;;;12.50
7389;BMP180;3735;50.136;11.062;2024-02-21T13:55:50;98201.00;;;12.30
7389;BMP180;3735;50.136;11.062;2024-02-21T13:58:16;98195.00;;;12.20
7389;BMP180;3735;50.136;11.062;2024-02-21T14:00:43;98201.00;;;11.90
7389;BMP180;3735;50.136;11.062;2024-02-21T14:03:08;98193.00;;;11.80
7389;BMP180;3735;50.136;11.062;2024-02-21T14:05:35;98191.00;;;11.70
7389;BMP180;3735;50.136;11.062;2024-02-21T14:08:01;98188.00;;;11.80
7389;BMP180;3735;50.136;11.062;2024-02-21T14:10:27;98179.00;;;11.50
7389;BMP180;3735;50.136;11.062;2024-02-21T14:12:53;98169.00;;;11.60
7389;BMP180;3735;50.136;11.062;2024-02-21T14:15:20;98168.00;;;11.40
7389;BMP180;3735;50.136;11.062;2024-02-21T14:17:46;98165.00;;;11.40
7389;BMP180;3735;50.136;11.062;2024-02-21T14:20:12;98162.00;;;11.20
7389;BMP180;3735;50.136;11.062;2024-02-21T14:22:41;98166.00;;;11.40
7389;BMP180;3735;50.136;11.062;2024-02-21T14:25:07;98153.00;;;11.40
7389;BMP180;3735;50.136;11.062;2024-02-21T14:27:33;98146.00;;;11.40
7389;BMP180;3735;50.136;11.062;2024-02-21T14:30:01;98132.00;;;11.50
7389;BMP180;3735;50.136;11.062;2024-02-21T14:32:28;98126.00;;;11.60
7389;BMP180;3735;50.136;11.062;2024-02-21T14:34:53;98123.00;;;11.70
7389;BMP180;3735;50.136;11.062;2024-02-21T14:37:19;98124.00;;;11.70